Time;durP1;ratioP1;P1;durP2;ratioP2;P2;SDS_P1;SDS_P2;PMS_P1;PMS_P2;Temp;Humidity;BMP_temperature;BMP_pressure;BME280_temperature;BME280_humidity;BME280_pressure;Samples;Min_cycle;Max_cycle;Signal;HPM_P1;HPM_P2
2023/07/19 00:00:26;;;;;;;9.80;6.70;;;;;;;17.88;100.00;97325.09;110233;1242;71386;-65
2023/07/19 00:03:17;;;;;;;8.50;6.90;;;;;;;17.88;100.00;97323.39;110165;1242;69282;-65
2023/07/19 00:05:49;;;;;;;9.80;6.80;;;;;;;17.89;100.00;97325.23;110198;1240;68593;-64
2023/07/19 00:08:22;;;;;;;8.70;6.80;;;;;;;17.91;100.00;97323.06;110241;1242;60082;-64
2023/07/19 00:10:53;;;;;;;10.30;6.70;;;;;;;17.93;100.00;97327.36;110243;1242;59641;-64
2023/07/19 00:13:24;;;;;;;7.70;6.30;;;;;;;17.93;100.00;97323.57;110201;1242;70542;-65
2023/07/19 00:15:54;;;;;;;7.40;6.30;;;;;;;17.92;100.00;97320.59;110217;1241;69854;-66
2023/07/19 00:18:23;;;;;;;9.50;6.50;;;;;;;17.93;100.00;97321.96;110233;1242;69884;-65
2023/07/19 00:20:53;;;;;;;7.60;6.00;;;;;;;17.94;100.00;97317.96;110148;1242;59782;-63
2023/07/19 00:23:25;;;;;;;8.70;6.40;;;;;;;17.96;100.00;97313.69;110223;1242;59671;-65
2023/07/19 00:25:56;;;;;;;8.70;6.50;;;;;;;17.96;100.00;97314.88;110212;1242;70742;-63
2023/07/19 00:28:27;;;;;;;9.80;6.20;;;;;;;17.96;100.00;97314.75;110184;1242;68391;-66
2023/07/19 00:31:03;;;;;;;11.60;7.70;;;;;;;17.96;100.00;97314.77;110164;1243;68622;-64
2023/07/19 00:33:33;;;;;;;11.00;7.80;;;;;;;17.96;100.00;97315.34;110200;1241;59677;-64
2023/07/19 00:36:05;;;;;;;10.30;7.50;;;;;;;17.96;100.00;97307.58;110231;1243;59695;-64
2023/07/19 00:38:39;;;;;;;9.70;7.40;;;;;;;17.97;100.00;97304.55;110179;1241;70524;-64
2023/07/19 00:41:10;;;;;;;9.60;7.50;;;;;;;18.00;100.00;97308.19;110244;1242;69122;-64
2023/07/19 00:43:42;;;;;;;10.90;8.40;;;;;;;18.00;100.00;97306.52;110185;1240;68524;-64
2023/07/19 00:46:13;;;;;;;9.30;7.20;;;;;;;18.01;100.00;97300.52;110122;1241;59741;-64
2023/07/19 00:48:46;;;;;;;10.40;7.80;;;;;;;17.99;100.00;97298.20;110239;1241;59753;-66
2023/07/19 00:51:18;;;;;;;10.80;7.80;;;;;;;17.99;100.00;97293.98;110213;1242;70642;-64
2023/07/19 00:53:49;;;;;;;9.20;7.20;;;;;;;17.99;100.00;97287.33;110159;1244;68771;-65
2023/07/19 00:56:21;;;;;;;12.20;8.50;;;;;;;18.00;100.00;97281.15;110222;1242;68922;-66
2023/07/19 00:58:53;;;;;;;9.90;7.60;;;;;;;18.01;100.00;97271.95;110248;1242;59704;-65
2023/07/19 01:01:26;;;;;;;9.10;7.40;;;;;;;18.02;100.00;97267.59;110242;1241;59759;-64
2023/07/19 01:03:58;;;;;;;10.10;8.30;;;;;;;18.04;100.00;97265.72;110229;1242;71491;-64
2023/07/19 01:06:32;;;;;;;9.40;7.60;;;;;;;18.06;100.00;97267.64;110121;1245;69139;-64
2023/07/19 01:09:04;;;;;;;9.40;7.60;;;;;;;18.09;100.00;97267.22;110222;1244;67602;-66
2023/07/19 01:11:37;;;;;;;9.80;6.60;;;;;;;18.09;100.00;97266.85;110227;1241;59789;-64
2023/07/19 01:14:07;;;;;;;;;;;;;;;18.09;100.00;97259.12;110224;1242;59689;-62
2023/07/19 01:16:38;;;;;;;8.10;6.40;;;;;;;18.08;100.00;97244.93;110148;1241;72070;-64
2023/07/19 01:19:10;;;;;;;8.80;6.70;;;;;;;18.06;100.00;97234.90;110233;1241;68512;-64
2023/07/19 01:21:42;;;;;;;9.90;7.80;;;;;;;18.05;100.00;97229.92;110181;1241;69436;-64
2023/07/19 01:24:12;;;;;;;10.00;7.60;;;;;;;18.02;100.00;97218.36;110193;1241;59704;-64
2023/07/19 01:26:43;;;;;;;10.40;7.10;;;;;;;17.98;100.00;97208.02;110122;1240;59963;-64
2023/07/19 01:29:14;;;;;;;8.70;7.30;;;;;;;17.95;100.00;97204.86;110191;1242;71330;-64
2023/07/19 01:31:45;;;;;;;9.20;7.30;;;;;;;17.90;100.00;97210.50;110166;1240;68480;-66
2023/07/19 01:34:17;;;;;;;9.40;6.80;;;;;;;17.86;100.00;97208.10;110199;1240;68516;-64
2023/07/19 01:36:47;;;;;;;10.00;7.20;;;;;;;17.82;100.00;97215.74;110248;1243;59763;-66
2023/07/19 01:39:18;;;;;;;8.60;6.70;;;;;;;17.78;100.00;97213.66;110152;1244;60150;-66
2023/07/19 01:41:49;;;;;;;7.60;6.00;;;;;;;17.76;100.00;97215.98;110151;1243;71424;-64
2023/07/19 01:44:19;;;;;;;7.70;5.90;;;;;;;17.75;100.00;97222.63;110242;1241;69052;-63
2023/07/19 01:46:52;;;;;;;7.80;6.10;;;;;;;17.74;100.00;97226.43;110138;1241;68527;-66
2023/07/19 01:49:24;;;;;;;8.10;6.20;;;;;;;17.76;100.00;97221.29;110120;1243;59662;-66
2023/07/19 01:51:56;;;;;;;7.60;5.90;;;;;;;17.79;100.00;97219.77;110258;1242;59676;-64
2023/07/19 01:54:28;;;;;;;8.60;6.10;;;;;;;17.82;100.00;97223.67;110249;1242;71214;-64
2023/07/19 01:56:59;;;;;;;7.00;5.20;;;;;;;17.86;100.00;97229.61;110267;1242;69132;-65
2023/07/19 01:59:30;;;;;;;7.20;5.70;;;;;;;17.91;100.00;97234.02;110213;1242;68396;-65
2023/07/19 02:02:02;;;;;;;7.20;5.60;;;;;;;17.96;100.00;97232.21;110200;1241;59670;-64
2023/07/19 02:04:33;;;;;;;8.30;5.90;;;;;;;18.03;100.00;97232.73;110148;1240;59679;-64
2023/07/19 02:07:04;;;;;;;7.10;5.70;;;;;;;18.08;100.00;97232.77;110249;1242;71252;-64
2023/07/19 02:09:36;;;;;;;8.50;6.30;;;;;;;18.06;100.00;97224.98;110224;1241;69683;-64
2023/07/19 02:12:07;;;;;;;7.70;6.20;;;;;;;18.04;100.00;97219.05;110175;1242;69312;-64
2023/07/19 02:14:37;;;;;;;6.90;6.00;;;;;;;18.02;100.00;97216.09;110221;1242;59763;-66
2023/07/19 02:17:08;;;;;;;7.80;5.60;;;;;;;18.00;100.00;97219.66;110195;1242;59747;-66
2023/07/19 02:19:40;;;;;;;8.00;6.70;;;;;;;17.98;100.00;97221.77;110201;1242;72144;-66
2023/07/19 02:22:17;;;;;;;8.80;6.50;;;;;;;17.94;100.00;97212.67;110220;1241;68487;-64
2023/07/19 02:24:47;;;;;;;7.20;6.10;;;;;;;17.94;100.00;97211.46;110180;1242;69152;-65
2023/07/19 02:27:17;;;;;;;7.20;5.80;;;;;;;17.94;100.00;97213.05;110226;1242;59766;-64
2023/07/19 02:29:47;;;;;;;7.70;5.90;;;;;;;17.96;100.00;97210.76;110190;1241;59709;-64
2023/07/19 02:32:20;;;;;;;6.70;5.30;;;;;;;17.96;100.00;97203.84;110215;1242;71310;-65
2023/07/19 02:34:50;;;;;;;8.30;6.30;;;;;;;17.96;100.00;97203.91;110231;1241;68508;-66
2023/07/19 02:37:19;;;;;;;7.00;6.20;;;;;;;17.97;100.00;97206.26;110114;1242;69288;-63
2023/07/19 02:39:49;;;;;;;6.60;5.90;;;;;;;18.00;100.00;97211.91;110178;1242;60042;-64
2023/07/19 02:42:19;;;;;;;6.80;5.60;;;;;;;18.02;100.00;97214.00;110231;1242;60130;-64
2023/07/19 02:44:51;;;;;;;7.40;5.60;;;;;;;18.04;100.00;97215.54;110227;1242;71976;-64
2023/07/19 02:47:23;;;;;;;5.80;4.80;;;;;;;18.07;100.00;97220.35;110247;1242;69372;-65
2023/07/19 02:49:55;;;;;;;6.40;5.00;;;;;;;18.09;100.00;97226.35;110206;1242;68966;-64
2023/07/19 02:52:25;;;;;;;8.50;6.60;;;;;;;18.06;100.00;97230.30;110181;1240;59743;-65
2023/07/19 02:54:55;;;;;;;7.60;6.80;;;;;;;18.06;100.00;97233.61;110139;1242;59674;-65
2023/07/19 02:57:26;;;;;;;10.70;7.70;;;;;;;18.00;100.00;97229.48;110200;1243;71235;-65
2023/07/19 02:59:56;;;;;;;8.40;7.20;;;;;;;17.93;100.00;97219.38;110190;1241;68468;-65
2023/07/19 03:02:26;;;;;;;10.50;7.40;;;;;;;17.85;100.00;97223.02;110222;1242;69739;-66
2023/07/19 03:04:57;;;;;;;10.50;7.20;;;;;;;17.78;100.00;97219.88;110169;1244;59694;-66
2023/07/19 03:07:27;;;;;;;9.10;7.30;;;;;;;17.75;100.00;97215.05;110242;1242;59740;-64
2023/07/19 03:10:05;;;;;;;9.70;7.10;;;;;;;17.74;100.00;97218.11;110225;1241;71243;-64
2023/07/19 03:12:35;;;;;;;9.10;7.80;;;;;;;17.74;100.00;97215.87;110133;1240;68428;-64
2023/07/19 03:15:10;;;;;;;9.40;7.20;;;;;;;17.75;100.00;97211.52;110141;1244;68335;-64
2023/07/19 03:17:41;;;;;;;9.30;7.20;;;;;;;17.76;100.00;97207.05;110165;1242;59737;-65
2023/07/19 03:20:12;;;;;;;8.30;7.00;;;;;;;17.78;100.00;97205.27;110220;1241;59752;-64
2023/07/19 03:22:43;;;;;;;8.00;6.80;;;;;;;17.81;100.00;97198.93;110168;1243;70667;-64
2023/07/19 03:25:15;;;;;;;9.10;7.10;;;;;;;17.83;100.00;97197.84;110175;1243;70032;-64
2023/07/19 03:27:47;;;;;;;9.40;6.30;;;;;;;17.86;100.00;97195.20;110214;1242;69813;-64
2023/07/19 03:30:18;;;;;;;7.00;5.70;;;;;;;17.90;100.00;97197.70;110248;1242;59671;-63
2023/07/19 03:32:49;;;;;;;7.20;6.00;;;;;;;17.92;100.00;97192.50;110210;1242;59726;-64
2023/07/19 03:35:20;;;;;;;7.60;6.20;;;;;;;17.94;100.00;97185.94;110165;1244;71387;-65
2023/07/19 03:37:51;;;;;;;9.00;6.20;;;;;;;17.97;100.00;97181.37;110167;1240;69387;-64
2023/07/19 03:40:22;;;;;;;7.50;6.30;;;;;;;18.01;100.00;97183.89;110092;1244;69201;-65
2023/07/19 03:42:54;;;;;;;7.90;6.40;;;;;;;18.04;100.00;97185.35;109607;1242;691907;-64
2023/07/19 03:45:27;;;;;;;7.10;6.20;;;;;;;18.07;100.00;97188.20;110142;1243;59720;-65
2023/07/19 03:47:58;;;;;;;7.30;6.00;;;;;;;18.12;100.00;97191.96;110195;1242;71369;-65
2023/07/19 03:50:30;;;;;;;9.00;6.50;;;;;;;18.15;100.00;97190.15;110148;1244;69065;-63
2023/07/19 03:53:01;;;;;;;7.60;6.00;;;;;;;18.18;100.00;97187.73;110110;1245;68415;-66
2023/07/19 03:55:32;;;;;;;6.70;6.00;;;;;;;18.19;100.00;97177.22;110201;1241;59752;-66
2023/07/19 03:58:05;;;;;;;8.00;6.70;;;;;;;18.23;100.00;97173.33;110199;1240;59750;-64
2023/07/19 04:00:35;;;;;;;7.80;6.10;;;;;;;18.26;100.00;97171.14;110210;1242;70916;-66
2023/07/19 04:03:06;;;;;;;9.00;6.40;;;;;;;18.32;100.00;97173.19;110188;1245;69349;-65
2023/07/19 04:05:36;;;;;;;6.90;6.00;;;;;;;18.37;100.00;97170.39;110217;1241;68465;-64
2023/07/19 04:08:06;;;;;;;8.40;6.70;;;;;;;18.43;100.00;97169.91;110232;1242;59690;-66
2023/07/19 04:10:38;;;;;;;7.50;6.40;;;;;;;18.50;100.00;97166.10;110210;1242;59663;-65
2023/07/19 04:13:12;;;;;;;6.60;4.80;;;;;;;18.57;100.00;97164.67;110166;1243;70290;-65
2023/07/19 04:15:43;;;;;;;7.80;6.00;;;;;;;18.65;100.00;97165.20;110141;1245;68504;-64
2023/07/19 04:18:14;;;;;;;7.20;6.30;;;;;;;18.77;100.00;97162.33;110171;1242;69800;-66
2023/07/19 04:20:44;;;;;;;7.30;5.70;;;;;;;18.89;100.00;97157.79;110184;1240;59699;-65
2023/07/19 04:23:14;;;;;;;6.90;5.40;;;;;;;19.03;100.00;97156.29;110192;1242;59741;-65
2023/07/19 04:25:44;;;;;;;7.40;5.80;;;;;;;19.14;99.91;97159.76;110118;1245;72047;-64
2023/07/19 04:28:15;;;;;;;7.60;5.80;;;;;;;19.23;97.84;97162.50;110125;1244;69748;-64
2023/07/19 04:30:46;;;;;;;8.90;6.80;;;;;;;19.29;97.43;97155.77;110159;1242;69286;-63
2023/07/19 04:33:19;;;;;;;7.50;6.60;;;;;;;19.35;96.56;97155.34;110196;1241;59747;-65
2023/07/19 04:35:52;;;;;;;7.80;6.90;;;;;;;19.40;96.44;97154.25;110192;1242;59682;-66
2023/07/19 04:38:21;;;;;;;;;;;;;;;19.43;95.85;97149.27;110176;1242;70737;-66
2023/07/19 04:40:51;;;;;;;9.20;7.40;;;;;;;19.48;96.68;97145.04;110162;1243;70011;-64
2023/07/19 04:43:22;;;;;;;9.80;7.40;;;;;;;19.53;97.68;97135.95;110147;1240;69363;-63
2023/07/19 04:45:55;;;;;;;8.20;6.40;;;;;;;19.56;97.68;97140.74;110133;1244;59736;-63
2023/07/19 04:48:25;;;;;;;;;;;;;;;19.66;97.15;97139.34;110144;1242;59676;-65
2023/07/19 04:50:56;;;;;;;6.10;5.30;;;;;;;19.77;96.53;97136.28;110142;1244;71465;-64
2023/07/19 04:53:27;;;;;;;6.60;5.40;;;;;;;19.87;96.50;97145.04;110222;1242;68305;-66
2023/07/19 04:55:58;;;;;;;7.50;6.00;;;;;;;19.97;96.08;97154.05;110153;1241;69276;-64
2023/07/19 04:58:32;;;;;;;7.50;5.80;;;;;;;20.02;94.58;97151.19;110175;1242;59759;-65
2023/07/19 05:01:07;;;;;;;6.80;5.40;;;;;;;20.06;93.64;97148.11;110199;1242;59681;-65
2023/07/19 05:03:40;;;;;;;6.30;5.10;;;;;;;20.12;94.04;97144.41;110180;1241;71374;-64
2023/07/19 05:06:09;;;;;;;9.00;7.20;;;;;;;20.17;92.18;97147.33;110219;1242;69159;-65
2023/07/19 05:08:39;;;;;;;8.70;7.00;;;;;;;20.21;92.17;97152.05;110201;1240;69258;-66
2023/07/19 05:11:08;;;;;;;7.60;6.80;;;;;;;20.23;91.34;97154.68;110207;1241;59750;-63
2023/07/19 05:13:38;;;;;;;7.80;6.50;;;;;;;20.26;94.25;97160.82;110141;1241;59848;-64
2023/07/19 05:16:09;;;;;;;7.40;6.20;;;;;;;20.29;94.27;97158.14;110215;1243;71391;-65
2023/07/19 05:18:39;;;;;;;9.20;5.90;;;;;;;20.30;94.32;97162.05;110228;1242;68852;-66
2023/07/19 05:21:09;;;;;;;7.50;6.00;;;;;;;20.31;93.81;97157.89;110166;1241;68567;-66
2023/07/19 05:23:39;;;;;;;6.50;5.50;;;;;;;20.30;94.20;97150.90;110201;1245;59692;-65
2023/07/19 05:26:09;;;;;;;6.10;5.30;;;;;;;20.31;95.28;97142.54;110185;1241;59774;-66
2023/07/19 05:28:38;;;;;;;6.10;5.40;;;;;;;20.32;95.50;97142.06;110209;1240;71927;-63
2023/07/19 05:31:08;;;;;;;6.70;5.40;;;;;;;20.34;95.72;97139.13;110194;1241;68917;-64
2023/07/19 05:33:38;;;;;;;8.10;5.80;;;;;;;20.40;96.48;97144.67;110238;1241;69295;-65
2023/07/19 05:36:08;;;;;;;6.10;5.00;;;;;;;20.49;95.02;97154.23;110131;1242;59670;-65
2023/07/19 05:38:37;;;;;;;7.50;5.90;;;;;;;20.55;94.31;97161.02;110216;1242;59705;-65
2023/07/19 05:41:07;;;;;;;;;;;;;;;20.41;95.18;97171.13;110158;1240;71991;-65
2023/07/19 05:43:36;;;;;;;;;;;;;;;20.16;94.30;97171.14;110226;1242;69081;-66
2023/07/19 05:46:07;;;;;;;9.20;6.30;;;;;;;19.96;95.21;97165.92;110207;1242;69783;-65
2023/07/19 05:48:37;;;;;;;6.00;5.30;;;;;;;19.76;94.75;97163.23;110209;1242;59752;-63
2023/07/19 05:51:07;;;;;;;5.80;5.00;;;;;;;19.72;95.49;97158.19;110166;1243;59757;-64
2023/07/19 05:53:37;;;;;;;6.70;5.50;;;;;;;19.73;95.67;97147.11;110198;1242;71871;-64
2023/07/19 05:56:06;;;;;;;7.80;5.80;;;;;;;19.75;95.51;97148.73;110146;1242;69134;-63
2023/07/19 05:58:35;;;;;;;6.90;6.10;;;;;;;19.89;96.07;97148.55;110175;1242;70146;-66
2023/07/19 06:01:07;;;;;;;7.00;5.70;;;;;;;20.17;94.60;97152.83;110187;1242;59681;-63
2023/07/19 06:03:37;;;;;;;6.80;5.40;;;;;;;20.41;91.93;97151.32;110192;1242;59675;-66
2023/07/19 06:06:06;;;;;;;9.30;5.60;;;;;;;20.71;90.46;97151.16;110179;1242;72320;-64
2023/07/19 06:08:36;;;;;;;;;;;;;;;21.02;89.58;97149.57;110236;1242;69216;-64
2023/07/19 06:11:05;;;;;;;;;;;;;;;21.31;88.97;97144.45;110217;1242;69283;-64
2023/07/19 06:13:34;;;;;;;6.30;5.20;;;;;;;21.55;86.40;97137.20;110204;1242;59741;-65
2023/07/19 06:16:03;;;;;;;6.60;5.50;;;;;;;21.77;85.59;97130.46;110202;1240;60054;-64
2023/07/19 06:18:33;;;;;;;8.50;5.50;;;;;;;22.06;83.43;97128.45;110232;1242;71441;-66
2023/07/19 06:21:03;;;;;;;6.20;5.20;;;;;;;22.36;82.98;97126.48;110212;1242;68562;-66
2023/07/19 06:23:32;;;;;;;7.50;5.10;;;;;;;22.64;82.30;97131.16;110240;1249;69869;-66
2023/07/19 06:26:02;;;;;;;6.00;5.40;;;;;;;22.93;78.70;97132.36;110183;1240;59697;-66
2023/07/19 06:28:35;;;;;;;7.00;5.30;;;;;;;23.36;79.51;97129.25;110182;1242;59766;-66
2023/07/19 06:31:04;;;;;;;5.50;5.00;;;;;;;23.75;73.96;97118.73;110170;1241;71342;-67
2023/07/19 06:33:33;;;;;;;7.40;5.40;;;;;;;24.27;73.84;97116.23;110196;1242;69170;-64
2023/07/19 06:36:02;;;;;;;6.10;4.90;;;;;;;24.75;72.52;97121.67;110161;1242;68872;-66
2023/07/19 06:38:31;;;;;;;5.20;4.50;;;;;;;25.26;69.26;97122.88;110261;1244;59734;-66
2023/07/19 06:41:03;;;;;;;5.20;4.50;;;;;;;25.68;71.09;97123.75;110187;1241;59706;-67
2023/07/19 06:43:32;;;;;;;5.80;4.50;;;;;;;26.05;66.74;97116.42;110267;1241;71403;-67
2023/07/19 06:46:01;;;;;;;;;;;;;;;26.28;64.41;97113.38;110262;1242;69232;-69
2023/07/19 06:48:30;;;;;;;5.00;4.50;;;;;;;26.51;64.34;97110.64;110192;1243;69235;-68
2023/07/19 06:50:59;;;;;;;;;;;;;;;26.77;61.85;97106.00;110179;1242;59740;-69
2023/07/19 06:53:29;;;;;;;6.70;4.70;;;;;;;26.93;60.92;97109.58;110215;1240;59683;-70
2023/07/19 06:55:59;;;;;;;4.90;4.40;;;;;;;26.87;59.20;97111.45;110174;1242;71545;-67
2023/07/19 06:58:28;;;;;;;7.00;4.60;;;;;;;26.81;60.40;97107.56;110169;1242;69273;-68
2023/07/19 07:00:58;;;;;;;6.00;4.50;;;;;;;26.60;59.60;97111.27;110257;1245;69109;-69
2023/07/19 07:03:28;;;;;;;5.50;4.60;;;;;;;26.39;59.19;97112.45;110144;1243;59670;-70
2023/07/19 07:06:00;;;;;;;5.20;4.20;;;;;;;26.48;59.87;97105.90;110264;1242;59669;-70
2023/07/19 07:08:33;;;;;;;16.50;5.00;;;;;;;26.69;60.18;97103.81;110190;1241;71283;-69
2023/07/19 07:11:04;;;;;;;7.40;4.60;;;;;;;26.61;58.16;97097.08;110172;1242;69790;-70
2023/07/19 07:13:33;;;;;;;9.60;4.00;;;;;;;26.91;58.56;97092.73;110276;1242;69310;-69
2023/07/19 07:16:03;;;;;;;7.00;4.50;;;;;;;27.27;57.21;97085.40;110152;1242;60084;-71
2023/07/19 07:18:32;;;;;;;5.10;4.30;;;;;;;27.67;57.65;97078.33;110200;1242;59659;-72
2023/07/19 07:21:01;;;;;;;6.10;4.50;;;;;;;28.02;54.15;97073.41;110352;1240;71975;-72
2023/07/19 07:23:30;;;;;;;4.30;3.80;;;;;;;28.12;51.65;97075.04;110306;1242;69030;-72
2023/07/19 07:25:58;;;;;;;5.80;4.70;;;;;;;28.24;51.11;97073.68;110333;1242;69878;-71
2023/07/19 07:28:28;;;;;;;5.20;3.70;;;;;;;28.17;50.30;97076.52;110314;1242;59727;-70
2023/07/19 07:30:56;;;;;;;5.10;3.80;;;;;;;28.36;50.34;97068.17;110323;1241;59739;-70
2023/07/19 07:33:26;;;;;;;5.50;4.30;;;;;;;28.66;50.23;97059.50;110151;1243;70565;-68
2023/07/19 07:35:55;;;;;;;5.30;4.30;;;;;;;28.88;50.12;97055.66;110164;1249;69810;-72
2023/07/19 07:38:24;;;;;;;5.10;4.30;;;;;;;29.06;48.78;97051.73;110219;1243;69892;-72
2023/07/19 07:41:11;;;;;;;5.40;3.90;;;;;;;29.21;48.97;97049.40;110190;1242;59732;-73
2023/07/19 07:43:40;;;;;;;5.40;3.90;;;;;;;29.48;49.10;97045.56;110144;1242;59742;-71
2023/07/19 07:46:11;;;;;;;6.60;4.50;;;;;;;29.68;47.63;97042.61;110218;1242;72321;-71
2023/07/19 07:48:41;;;;;;;6.20;3.90;;;;;;;29.85;46.18;97043.79;110274;1241;69208;-71
2023/07/19 07:51:11;;;;;;;5.20;4.00;;;;;;;29.68;45.77;97042.14;110316;1247;68344;-70
2023/07/19 07:53:40;;;;;;;4.80;4.20;;;;;;;29.65;46.34;97042.20;110204;1242;59697;-72
2023/07/19 07:56:09;;;;;;;6.60;4.40;;;;;;;29.81;46.15;97039.85;110298;1242;59630;-75
2023/07/19 07:58:38;;;;;;;;;;;;;;;29.88;45.35;97038.72;110156;1242;71345;-69
2023/07/19 08:01:06;;;;;;;4.70;3.90;;;;;;;30.08;45.63;97040.35;110209;1241;69842;-70
2023/07/19 08:03:37;;;;;;;5.00;3.70;;;;;;;30.27;45.94;97037.86;110174;1242;69103;-73
2023/07/19 08:06:07;;;;;;;5.20;3.70;;;;;;;30.51;45.07;97036.71;110342;1242;59814;-71
2023/07/19 08:08:35;;;;;;;4.90;3.60;;;;;;;30.60;45.22;97033.83;110264;1242;59704;-76
2023/07/19 08:11:05;;;;;;;4.60;4.00;;;;;;;30.83;45.14;97036.54;110168;1242;70588;-78
2023/07/19 08:13:35;;;;;;;5.50;3.70;;;;;;;31.17;43.84;97031.51;110304;1249;69096;-72
2023/07/19 08:16:07;;;;;;;4.10;3.60;;;;;;;31.49;44.15;97024.60;110296;1241;69887;-73
2023/07/19 08:18:36;;;;;;;4.60;4.00;;;;;;;31.74;43.21;97025.66;110152;1242;59715;-75
2023/07/19 08:21:06;;;;;;;4.10;3.70;;;;;;;31.85;42.44;97026.93;110405;1242;59676;-73
2023/07/19 08:23:37;;;;;;;4.90;4.10;;;;;;;31.84;42.10;97023.61;110305;1242;71957;-74
2023/07/19 08:26:06;;;;;;;;;;;;;;;31.67;42.33;97026.89;110220;1243;69233;-80
2023/07/19 08:28:35;;;;;;;4.30;3.60;;;;;;;31.71;41.92;97021.73;110179;1242;69434;-76
2023/07/19 08:31:04;;;;;;;4.90;4.10;;;;;;;31.78;42.48;97020.02;110325;1241;59696;-76
2023/07/19 08:33:33;;;;;;;4.70;3.80;;;;;;;31.99;42.83;97023.10;110171;1242;59753;-76
2023/07/19 08:36:03;;;;;;;4.60;4.00;;;;;;;32.22;42.06;97021.55;110246;1242;71338;-74
2023/07/19 08:38:32;;;;;;;6.80;4.20;;;;;;;32.31;41.51;97019.84;110396;1240;69229;-76
2023/07/19 08:41:02;;;;;;;;;;;;;;;31.86;41.38;97018.60;110319;1247;69267;-69
2023/07/19 08:43:36;;;;;;;4.70;4.00;;;;;;;32.18;41.38;97020.10;110192;1242;59744;-73
2023/07/19 08:46:12;;;;;;;5.50;4.60;;;;;;;32.09;40.64;97019.88;110365;1241;59627;-73
2023/07/19 08:48:47;;;;;;;5.10;4.20;;;;;;;32.18;40.86;97014.49;110367;1242;70539;-70
2023/07/19 08:51:17;;;;;;;4.60;4.00;;;;;;;32.35;41.03;97013.80;110282;1242;68658;-72
2023/07/19 08:53:46;;;;;;;4.40;3.90;;;;;;;32.55;41.01;97010.88;110228;1241;69946;-71
2023/07/19 08:56:15;;;;;;;4.80;3.90;;;;;;;32.77;40.37;97007.59;110233;1242;59698;-71
2023/07/19 08:58:45;;;;;;;4.20;3.80;;;;;;;32.77;40.17;97004.86;110291;1242;59705;-70
2023/07/19 09:01:15;;;;;;;5.00;3.60;;;;;;;32.83;40.11;97001.39;110176;1241;71873;-70
2023/07/19 09:03:44;;;;;;;6.00;4.30;;;;;;;32.88;40.06;97000.01;110143;1246;69841;-72
2023/07/19 09:06:24;;;;;;;4.90;4.30;;;;;;;32.92;39.42;96994.94;110298;1245;69185;-70
2023/07/19 09:08:55;;;;;;;4.80;4.30;;;;;;;32.41;40.42;96992.23;110137;1241;59704;-71
2023/07/19 09:11:25;;;;;;;4.80;4.00;;;;;;;32.49;41.11;96989.13;110173;1245;59670;-71
2023/07/19 09:13:55;;;;;;;4.10;3.70;;;;;;;32.98;40.65;96982.20;110152;1244;72120;-74
2023/07/19 09:16:31;;;;;;;6.10;4.10;;;;;;;33.07;40.19;96981.85;110290;1245;69249;-74
2023/07/19 09:19:01;;;;;;;4.60;3.90;;;;;;;33.03;40.35;96980.25;110127;1243;68513;-75
2023/07/19 09:21:34;;;;;;;4.50;4.10;;;;;;;33.52;39.21;96971.80;110196;1241;59760;-76
2023/07/19 09:24:05;;;;;;;5.60;4.40;;;;;;;33.80;38.92;96966.63;110179;1241;59663;-74
2023/07/19 09:26:50;;;;;;;4.70;4.30;;;;;;;33.95;38.71;96961.48;110136;1244;70994;-74
2023/07/19 09:29:20;;;;;;;5.00;4.30;;;;;;;34.02;38.09;96960.19;110167;1245;68532;-75
2023/07/19 09:31:54;;;;;;;5.30;4.00;;;;;;;34.56;38.58;96959.23;110139;1244;68902;-75
2023/07/19 09:34:37;;;;;;;19.20;14.50;;;;;;;34.81;37.91;96952.31;110292;1241;59675;-75
2023/07/19 09:37:06;;;;;;;76.90;49.90;;;;;;;34.92;38.03;96951.99;110071;1245;59725;-76
2023/07/19 09:39:37;;;;;;;26.10;19.60;;;;;;;35.14;37.66;96953.15;110155;1245;69821;-74
2023/07/19 09:42:08;;;;;;;7.60;5.90;;;;;;;35.23;37.42;96953.60;110181;1244;69237;-74
2023/07/19 09:44:38;;;;;;;6.20;4.90;;;;;;;35.18;36.72;96950.52;110148;1242;68976;-74
2023/07/19 09:47:10;;;;;;;6.90;5.00;;;;;;;34.90;37.01;96944.94;110287;1241;59737;-74
2023/07/19 09:49:56;;;;;;;5.40;4.80;;;;;;;34.69;38.07;96944.05;110162;1242;59684;-75
2023/07/19 09:52:26;;;;;;;6.50;5.60;;;;;;;34.85;37.44;96933.83;110145;1244;71131;-75
2023/07/19 09:54:56;;;;;;;4.80;4.30;;;;;;;34.81;38.31;96930.38;110113;1241;68811;-75
2023/07/19 09:57:27;;;;;;;5.10;4.50;;;;;;;35.06;38.66;96935.27;110279;1241;68931;-75
2023/07/19 09:59:56;;;;;;;5.60;5.10;;;;;;;35.55;36.96;96931.11;110244;1241;59711;-75
2023/07/19 10:02:26;;;;;;;5.80;5.00;;;;;;;35.74;36.04;96924.13;110238;1245;59683;-75
2023/07/19 10:04:55;;;;;;;6.70;5.30;;;;;;;35.25;37.40;96924.30;110300;1243;70413;-74
2023/07/19 10:07:29;;;;;;;5.50;5.00;;;;;;;35.14;36.69;96924.96;110095;1246;68790;-74
2023/07/19 10:10:17;;;;;;;5.40;4.90;;;;;;;35.30;37.85;96918.99;110107;1245;68733;-75
2023/07/19 10:12:48;;;;;;;5.60;5.00;;;;;;;35.32;37.52;96914.73;110168;1245;59671;-75
2023/07/19 10:15:20;;;;;;;5.90;5.40;;;;;;;35.66;35.93;96915.16;110139;1245;59802;-75
2023/07/19 10:17:51;;;;;;;6.90;6.00;;;;;;;35.35;36.34;96905.20;110165;1245;71415;-76
2023/07/19 10:20:36;;;;;;;7.50;6.10;;;;;;;35.52;37.06;96899.94;110202;1243;68815;-75
2023/07/19 10:23:08;;;;;;;6.10;5.50;;;;;;;35.53;36.07;96895.36;110197;1245;69256;-75
2023/07/19 10:25:45;;;;;;;7.40;6.00;;;;;;;35.01;36.90;96889.05;110088;1244;59672;-75
2023/07/19 10:28:29;;;;;;;6.40;5.80;;;;;;;34.34;37.44;96884.29;110136;1245;59737;-75
2023/07/19 10:31:06;;;;;;;7.50;6.80;;;;;;;34.20;38.27;96881.20;110121;1245;71362;-76
2023/07/19 10:33:56;;;;;;;7.80;7.10;;;;;;;33.51;38.25;96878.25;110127;1245;68771;-75
2023/07/19 10:36:25;;;;;;;6.70;6.10;;;;;;;33.04;39.16;96868.69;110145;1244;68917;-75
2023/07/19 10:38:54;;;;;;;6.60;5.90;;;;;;;32.93;40.14;96864.17;110129;1246;59670;-75
2023/07/19 10:41:23;;;;;;;7.40;6.70;;;;;;;32.29;41.49;96870.73;110191;1245;59641;-75
2023/07/19 10:43:58;;;;;;;7.00;5.70;;;;;;;32.14;42.46;96870.73;110124;1241;71981;-75
2023/07/19 10:46:29;;;;;;;6.10;5.50;;;;;;;32.45;42.33;96869.62;110163;1244;69817;-75
2023/07/19 10:48:59;;;;;;;6.40;5.70;;;;;;;32.69;42.43;96866.63;110120;1241;69109;-77
2023/07/19 10:51:28;;;;;;;7.00;5.90;;;;;;;33.16;41.85;96864.95;110136;1243;59748;-76
2023/07/19 10:53:58;;;;;;;7.10;5.60;;;;;;;33.11;41.36;96863.93;110150;1245;59754;-77
2023/07/19 10:56:28;;;;;;;8.00;6.40;;;;;;;32.91;42.53;96863.45;110140;1243;71867;-74
2023/07/19 10:58:59;;;;;;;6.90;6.00;;;;;;;32.95;41.35;96859.68;110139;1244;67881;-74
2023/07/19 11:01:29;;;;;;;9.20;6.50;;;;;;;32.93;41.50;96858.36;110136;1241;67713;-77
2023/07/19 11:04:04;;;;;;;5.90;5.40;;;;;;;33.02;42.93;96858.19;110167;1244;60193;-75
2023/07/19 11:06:36;;;;;;;6.30;5.10;;;;;;;33.18;42.84;96860.64;110157;1242;59714;-75
2023/07/19 11:09:09;;;;;;;7.00;5.70;;;;;;;33.59;42.35;96861.10;110143;1241;71976;-75
2023/07/19 11:11:39;;;;;;;9.00;6.10;;;;;;;33.95;40.44;96857.02;110187;1241;69811;-76
2023/07/19 11:14:08;;;;;;;8.00;6.60;;;;;;;34.39;39.73;96855.70;110210;1243;69844;-77
2023/07/19 11:16:37;;;;;;;6.40;5.70;;;;;;;34.94;39.24;96849.91;110240;1245;59699;-76
2023/07/19 11:19:06;;;;;;;6.60;6.00;;;;;;;35.37;39.41;96848.03;110199;1245;59688;-76
2023/07/19 11:21:35;;;;;;;6.70;5.60;;;;;;;35.89;39.14;96845.48;110179;1243;72022;-76
2023/07/19 11:24:05;;;;;;;6.50;5.90;;;;;;;35.72;36.56;96846.84;110190;1245;69740;-75
2023/07/19 11:26:51;;;;;;;7.30;6.60;;;;;;;35.30;36.83;96840.80;110157;1243;69330;-75
2023/07/19 11:29:20;;;;;;;8.00;6.00;;;;;;;35.43;36.99;96840.12;110134;1245;59684;-74
2023/07/19 11:31:49;;;;;;;6.70;5.90;;;;;;;35.77;36.77;96836.62;110152;1242;59785;-73
2023/07/19 11:34:19;;;;;;;6.00;5.40;;;;;;;35.97;34.88;96837.52;110132;1241;71990;-75
2023/07/19 11:36:48;;;;;;;7.00;6.00;;;;;;;35.70;35.58;96833.27;110118;1241;68568;-74
2023/07/19 11:39:21;;;;;;;6.20;5.50;;;;;;;35.84;36.67;96831.88;110127;1244;70089;-75
2023/07/19 11:41:50;;;;;;;5.80;5.30;;;;;;;36.18;35.63;96825.00;110163;1242;59715;-75